sensor_id;sensor_type;location;lat;lon;timestamp;P1;durP1;ratioP1;P2;durP2;ratioP2
9661;SDS011;24982;52.344;12.990;2023-05-02T00:01:07;7.60;;;5.20;;
9661;SDS011;24982;52.344;12.990;2023-05-02T00:04:10;6.70;;;5.03;;
9661;SDS011;24982;52.344;12.990;2023-05-02T00:07:12;5.82;;;4.97;;
9661;SDS011;24982;52.344;12.990;2023-05-02T00:10:14;6.15;;;5.40;;
9661;SDS011;24982;52.344;12.990;2023-05-02T00:13:16;5.15;;;4.65;;
9661;SDS011;24982;52.344;12.990;2023-05-02T00:16:18;5.78;;;4.60;;
9661;SDS011;24982;52.344;12.990;2023-05-02T00:19:22;6.80;;;5.53;;
9661;SDS011;24982;52.344;12.990;2023-05-02T00:22:24;5.72;;;5.15;;
9661;SDS011;24982;52.344;12.990;2023-05-02T00:25:26;5.22;;;4.72;;
9661;SDS011;24982;52.344;12.990;2023-05-02T00:28:28;7.30;;;5.07;;
9661;SDS011;24982;52.344;12.990;2023-05-02T00:31:31;8.18;;;5.10;;
9661;SDS011;24982;52.344;12.990;2023-05-02T00:34:34;7.00;;;5.68;;
9661;SDS011;24982;52.344;12.990;2023-05-02T00:37:36;6.20;;;5.60;;
9661;SDS011;24982;52.344;12.990;2023-05-02T00:40:41;6.10;;;5.50;;
9661;SDS011;24982;52.344;12.990;2023-05-02T00:43:45;8.48;;;5.55;;
9661;SDS011;24982;52.344;12.990;2023-05-02T00:46:47;5.65;;;4.80;;
9661;SDS011;24982;52.344;12.990;2023-05-02T00:49:50;5.88;;;5.30;;
9661;SDS011;24982;52.344;12.990;2023-05-02T00:52:52;6.90;;;5.30;;
9661;SDS011;24982;52.344;12.990;2023-05-02T00:55:56;6.38;;;5.30;;
9661;SDS011;24982;52.344;12.990;2023-05-02T00:58:58;7.50;;;5.00;;
9661;SDS011;24982;52.344;12.990;2023-05-02T01:02:03;7.43;;;4.90;;
9661;SDS011;24982;52.344;12.990;2023-05-02T01:05:14;5.10;;;4.68;;
9661;SDS011;24982;52.344;12.990;2023-05-02T01:08:24;7.38;;;4.93;;
9661;SDS011;24982;52.344;12.990;2023-05-02T01:11:38;6.68;;;5.07;;
9661;SDS011;24982;52.344;12.990;2023-05-02T01:14:46;5.65;;;4.97;;
9661;SDS011;24982;52.344;12.990;2023-05-02T01:17:54;6.05;;;4.90;;
9661;SDS011;24982;52.344;12.990;2023-05-02T01:20:59;6.30;;;4.97;;
9661;SDS011;24982;52.344;12.990;2023-05-02T01:24:04;6.25;;;4.78;;
9661;SDS011;24982;52.344;12.990;2023-05-02T01:27:14;5.38;;;4.97;;
9661;SDS011;24982;52.344;12.990;2023-05-02T01:30:39;5.50;;;5.00;;
9661;SDS011;24982;52.344;12.990;2023-05-02T01:33:43;6.32;;;5.30;;
9661;SDS011;24982;52.344;12.990;2023-05-02T01:36:46;5.75;;;5.18;;
9661;SDS011;24982;52.344;12.990;2023-05-02T01:39:50;6.95;;;5.18;;
9661;SDS011;24982;52.344;12.990;2023-05-02T01:42:55;6.25;;;5.00;;
9661;SDS011;24982;52.344;12.990;2023-05-02T01:46:01;7.95;;;4.85;;
9661;SDS011;24982;52.344;12.990;2023-05-02T01:49:06;5.80;;;5.07;;
9661;SDS011;24982;52.344;12.990;2023-05-02T01:52:10;11.00;;;5.30;;
9661;SDS011;24982;52.344;12.990;2023-05-02T01:55:14;5.55;;;5.05;;
9661;SDS011;24982;52.344;12.990;2023-05-02T01:58:18;6.57;;;5.07;;
9661;SDS011;24982;52.344;12.990;2023-05-02T02:01:23;5.22;;;4.80;;
9661;SDS011;24982;52.344;12.990;2023-05-02T02:04:30;5.60;;;5.00;;
9661;SDS011;24982;52.344;12.990;2023-05-02T02:07:35;9.43;;;5.22;;
9661;SDS011;24982;52.344;12.990;2023-05-02T02:10:39;7.00;;;5.32;;
9661;SDS011;24982;52.344;12.990;2023-05-02T02:13:44;7.60;;;5.28;;
9661;SDS011;24982;52.344;12.990;2023-05-02T02:16:52;6.85;;;5.28;;
9661;SDS011;24982;52.344;12.990;2023-05-02T02:19:56;6.07;;;5.35;;
9661;SDS011;24982;52.344;12.990;2023-05-02T02:23:02;4.85;;;4.50;;
9661;SDS011;24982;52.344;12.990;2023-05-02T02:26:07;6.10;;;5.30;;
9661;SDS011;24982;52.344;12.990;2023-05-02T02:29:10;5.30;;;4.80;;
9661;SDS011;24982;52.344;12.990;2023-05-02T02:32:15;5.68;;;4.80;;
9661;SDS011;24982;52.344;12.990;2023-05-02T02:35:17;5.20;;;4.70;;
9661;SDS011;24982;52.344;12.990;2023-05-02T02:38:24;4.75;;;4.35;;
9661;SDS011;24982;52.344;12.990;2023-05-02T02:41:32;4.68;;;4.22;;
9661;SDS011;24982;52.344;12.990;2023-05-02T02:44:42;5.13;;;4.57;;
9661;SDS011;24982;52.344;12.990;2023-05-02T02:47:56;6.80;;;4.40;;
9661;SDS011;24982;52.344;12.990;2023-05-02T02:51:08;4.85;;;4.10;;
9661;SDS011;24982;52.344;12.990;2023-05-02T02:54:17;4.22;;;3.70;;
9661;SDS011;24982;52.344;12.990;2023-05-02T02:57:27;4.90;;;4.00;;
9661;SDS011;24982;52.344;12.990;2023-05-02T03:00:36;7.03;;;4.22;;
9661;SDS011;24982;52.344;12.990;2023-05-02T03:03:41;4.95;;;3.92;;
9661;SDS011;24982;52.344;12.990;2023-05-02T03:06:44;5.10;;;3.83;;
9661;SDS011;24982;52.344;12.990;2023-05-02T03:09:46;5.50;;;3.70;;
9661;SDS011;24982;52.344;12.990;2023-05-02T03:12:54;6.38;;;3.90;;
9661;SDS011;24982;52.344;12.990;2023-05-02T03:19:39;6.47;;;3.80;;
9661;SDS011;24982;52.344;12.990;2023-05-02T03:22:42;4.78;;;4.28;;
9661;SDS011;24982;52.344;12.990;2023-05-02T03:25:44;5.05;;;4.10;;
9661;SDS011;24982;52.344;12.990;2023-05-02T03:28:52;4.68;;;3.70;;
9661;SDS011;24982;52.344;12.990;2023-05-02T03:32:00;3.70;;;3.40;;
9661;SDS011;24982;52.344;12.990;2023-05-02T03:35:04;4.93;;;3.78;;
9661;SDS011;24982;52.344;12.990;2023-05-02T03:38:12;5.05;;;3.85;;
9661;SDS011;24982;52.344;12.990;2023-05-02T03:41:16;6.47;;;3.42;;
9661;SDS011;24982;52.344;12.990;2023-05-02T03:44:25;3.88;;;2.97;;
9661;SDS011;24982;52.344;12.990;2023-05-02T03:47:27;3.33;;;3.03;;
9661;SDS011;24982;52.344;12.990;2023-05-02T03:50:31;5.55;;;3.13;;
9661;SDS011;24982;52.344;12.990;2023-05-02T03:53:33;3.42;;;3.08;;
9661;SDS011;24982;52.344;12.990;2023-05-02T03:56:35;4.05;;;3.00;;
9661;SDS011;24982;52.344;12.990;2023-05-02T04:00:06;5.90;;;3.28;;
9661;SDS011;24982;52.344;12.990;2023-05-02T04:03:12;3.05;;;2.78;;
9661;SDS011;24982;52.344;12.990;2023-05-02T04:06:18;4.93;;;2.80;;
9661;SDS011;24982;52.344;12.990;2023-05-02T04:09:25;4.78;;;3.00;;
9661;SDS011;24982;52.344;12.990;2023-05-02T04:12:32;3.72;;;3.00;;
9661;SDS011;24982;52.344;12.990;2023-05-02T04:15:35;4.65;;;3.10;;
9661;SDS011;24982;52.344;12.990;2023-05-02T04:18:38;3.30;;;3.00;;
9661;SDS011;24982;52.344;12.990;2023-05-02T04:21:42;8.02;;;3.25;;
9661;SDS011;24982;52.344;12.990;2023-05-02T04:24:46;4.05;;;3.03;;
9661;SDS011;24982;52.344;12.990;2023-05-02T04:27:49;5.47;;;3.15;;
9661;SDS011;24982;52.344;12.990;2023-05-02T04:30:54;3.80;;;3.30;;
9661;SDS011;24982;52.344;12.990;2023-05-02T04:33:58;3.97;;;3.20;;
9661;SDS011;24982;52.344;12.990;2023-05-02T04:37:06;4.30;;;3.05;;
9661;SDS011;24982;52.344;12.990;2023-05-02T04:40:09;6.28;;;3.20;;
9661;SDS011;24982;52.344;12.990;2023-05-02T04:43:12;4.53;;;3.45;;
9661;SDS011;24982;52.344;12.990;2023-05-02T04:46:21;4.10;;;3.20;;
9661;SDS011;24982;52.344;12.990;2023-05-02T04:49:23;5.30;;;3.33;;
9661;SDS011;24982;52.344;12.990;2023-05-02T04:52:27;4.05;;;3.00;;
9661;SDS011;24982;52.344;12.990;2023-05-02T04:55:30;3.35;;;3.03;;
9661;SDS011;24982;52.344;12.990;2023-05-02T04:58:32;4.97;;;3.10;;
9661;SDS011;24982;52.344;12.990;2023-05-02T05:01:38;4.28;;;3.35;;
9661;SDS011;24982;52.344;12.990;2023-05-02T05:04:42;4.07;;;3.20;;
9661;SDS011;24982;52.344;12.990;2023-05-02T05:07:46;6.95;;;3.40;;
9661;SDS011;24982;52.344;12.990;2023-05-02T05:10:50;6.38;;;3.60;;
9661;SDS011;24982;52.344;12.990;2023-05-02T05:13:53;3.80;;;3.47;;
9661;SDS011;24982;52.344;12.990;2023-05-02T05:16:56;3.90;;;3.50;;
9661;SDS011;24982;52.344;12.990;2023-05-02T05:19:59;5.95;;;3.63;;
9661;SDS011;24982;52.344;12.990;2023-05-02T05:23:02;4.82;;;3.40;;
9661;SDS011;24982;52.344;12.990;2023-05-02T05:26:08;4.43;;;3.55;;
9661;SDS011;24982;52.344;12.990;2023-05-02T05:29:11;4.95;;;3.33;;
9661;SDS011;24982;52.344;12.990;2023-05-02T05:32:15;7.15;;;3.85;;
9661;SDS011;24982;52.344;12.990;2023-05-02T05:35:18;5.05;;;3.67;;
9661;SDS011;24982;52.344;12.990;2023-05-02T05:38:21;4.63;;;4.22;;
9661;SDS011;24982;52.344;12.990;2023-05-02T05:41:24;5.78;;;3.90;;
9661;SDS011;24982;52.344;12.990;2023-05-02T05:44:33;5.10;;;4.30;;
9661;SDS011;24982;52.344;12.990;2023-05-02T05:47:35;7.78;;;4.53;;
9661;SDS011;24982;52.344;12.990;2023-05-02T05:50:38;4.85;;;4.35;;
9661;SDS011;24982;52.344;12.990;2023-05-02T05:53:41;5.72;;;5.00;;
9661;SDS011;24982;52.344;12.990;2023-05-02T05:56:45;7.07;;;5.25;;
9661;SDS011;24982;52.344;12.990;2023-05-02T05:59:51;5.55;;;5.03;;
9661;SDS011;24982;52.344;12.990;2023-05-02T06:02:54;10.85;;;5.90;;
9661;SDS011;24982;52.344;12.990;2023-05-02T06:06:01;7.18;;;5.22;;
9661;SDS011;24982;52.344;12.990;2023-05-02T06:09:05;6.57;;;5.88;;
9661;SDS011;24982;52.344;12.990;2023-05-02T06:12:07;8.27;;;6.05;;
9661;SDS011;24982;52.344;12.990;2023-05-02T06:15:11;8.90;;;6.32;;
9661;SDS011;24982;52.344;12.990;2023-05-02T06:18:14;10.13;;;6.20;;
9661;SDS011;24982;52.344;12.990;2023-05-02T06:21:16;7.78;;;6.45;;
9661;SDS011;24982;52.344;12.990;2023-05-02T06:24:20;7.60;;;6.13;;
9661;SDS011;24982;52.344;12.990;2023-05-02T06:27:22;9.57;;;6.25;;
9661;SDS011;24982;52.344;12.990;2023-05-02T06:30:23;9.18;;;6.65;;
9661;SDS011;24982;52.344;12.990;2023-05-02T06:33:26;8.85;;;6.47;;
9661;SDS011;24982;52.344;12.990;2023-05-02T06:36:28;12.15;;;6.45;;
9661;SDS011;24982;52.344;12.990;2023-05-02T06:39:32;8.23;;;6.57;;
9661;SDS011;24982;52.344;12.990;2023-05-02T06:42:34;7.63;;;6.60;;
9661;SDS011;24982;52.344;12.990;2023-05-02T06:45:35;13.20;;;7.00;;
9661;SDS011;24982;52.344;12.990;2023-05-02T06:48:37;7.28;;;6.50;;
9661;SDS011;24982;52.344;12.990;2023-05-02T06:51:39;13.63;;;8.23;;
9661;SDS011;24982;52.344;12.990;2023-05-02T06:54:43;11.77;;;7.63;;
9661;SDS011;24982;52.344;12.990;2023-05-02T06:57:45;8.73;;;7.65;;
9661;SDS011;24982;52.344;12.990;2023-05-02T07:00:47;11.48;;;7.75;;
9661;SDS011;24982;52.344;12.990;2023-05-02T07:03:49;11.25;;;8.52;;
9661;SDS011;24982;52.344;12.990;2023-05-02T07:06:51;10.52;;;8.77;;
9661;SDS011;24982;52.344;12.990;2023-05-02T07:09:54;12.93;;;7.95;;
9661;SDS011;24982;52.344;12.990;2023-05-02T07:12:56;10.00;;;8.25;;
9661;SDS011;24982;52.344;12.990;2023-05-02T07:15:58;11.90;;;8.25;;
9661;SDS011;24982;52.344;12.990;2023-05-02T07:19:00;9.77;;;7.75;;
9661;SDS011;24982;52.344;12.990;2023-05-02T07:22:04;11.30;;;7.85;;
9661;SDS011;24982;52.344;12.990;2023-05-02T07:25:08;11.40;;;8.10;;
9661;SDS011;24982;52.344;12.990;2023-05-02T07:28:10;9.93;;;7.90;;
9661;SDS011;24982;52.344;12.990;2023-05-02T07:31:12;9.35;;;7.80;;
9661;SDS011;24982;52.344;12.990;2023-05-02T07:34:14;10.63;;;8.48;;
9661;SDS011;24982;52.344;12.990;2023-05-02T07:37:16;8.90;;;7.78;;
9661;SDS011;24982;52.344;12.990;2023-05-02T07:40:19;15.20;;;8.80;;
9661;SDS011;24982;52.344;12.990;2023-05-02T07:43:21;9.23;;;7.60;;
9661;SDS011;24982;52.344;12.990;2023-05-02T07:46:23;10.48;;;7.47;;
9661;SDS011;24982;52.344;12.990;2023-05-02T07:49:25;7.85;;;6.57;;
9661;SDS011;24982;52.344;12.990;2023-05-02T07:52:27;8.30;;;7.40;;
9661;SDS011;24982;52.344;12.990;2023-05-02T07:55:31;9.90;;;7.88;;
9661;SDS011;24982;52.344;12.990;2023-05-02T07:58:33;8.50;;;7.60;;
9661;SDS011;24982;52.344;12.990;2023-05-02T08:01:36;9.23;;;7.78;;
9661;SDS011;24982;52.344;12.990;2023-05-02T08:04:38;8.85;;;7.53;;
9661;SDS011;24982;52.344;12.990;2023-05-02T08:07:40;9.52;;;8.20;;
9661;SDS011;24982;52.344;12.990;2023-05-02T08:10:43;8.75;;;7.70;;
9661;SDS011;24982;52.344;12.990;2023-05-02T08:13:45;14.02;;;8.93;;
9661;SDS011;24982;52.344;12.990;2023-05-02T08:16:47;10.07;;;8.95;;
9661;SDS011;24982;52.344;12.990;2023-05-02T08:19:49;9.90;;;8.77;;
9661;SDS011;24982;52.344;12.990;2023-05-02T08:22:51;10.52;;;8.68;;
9661;SDS011;24982;52.344;12.990;2023-05-02T08:25:54;10.65;;;9.48;;
9661;SDS011;24982;52.344;12.990;2023-05-02T08:29:00;8.93;;;7.45;;
9661;SDS011;24982;52.344;12.990;2023-05-02T08:32:03;10.82;;;7.95;;
9661;SDS011;24982;52.344;12.990;2023-05-02T08:35:06;7.65;;;6.85;;
9661;SDS011;24982;52.344;12.990;2023-05-02T08:38:08;10.52;;;7.10;;
9661;SDS011;24982;52.344;12.990;2023-05-02T08:41:12;8.50;;;7.70;;
9661;SDS011;24982;52.344;12.990;2023-05-02T08:44:16;7.72;;;6.93;;
9661;SDS011;24982;52.344;12.990;2023-05-02T08:47:18;9.10;;;6.75;;
9661;SDS011;24982;52.344;12.990;2023-05-02T08:50:20;9.55;;;7.07;;
9661;SDS011;24982;52.344;12.990;2023-05-02T08:53:23;8.93;;;7.57;;
9661;SDS011;24982;52.344;12.990;2023-05-02T08:56:27;7.38;;;6.68;;
9661;SDS011;24982;52.344;12.990;2023-05-02T08:59:30;7.78;;;6.97;;
9661;SDS011;24982;52.344;12.990;2023-05-02T09:02:41;6.20;;;5.50;;
9661;SDS011;24982;52.344;12.990;2023-05-02T09:05:52;7.40;;;6.15;;
9661;SDS011;24982;52.344;12.990;2023-05-02T09:08:58;6.47;;;5.40;;
9661;SDS011;24982;52.344;12.990;2023-05-02T09:12:02;9.55;;;6.13;;
9661;SDS011;24982;52.344;12.990;2023-05-02T09:15:08;6.18;;;5.57;;
9661;SDS011;24982;52.344;12.990;2023-05-02T09:18:18;6.40;;;5.57;;
9661;SDS011;24982;52.344;12.990;2023-05-02T09:21:20;6.47;;;5.68;;
9661;SDS011;24982;52.344;12.990;2023-05-02T09:24:24;5.72;;;5.18;;
9661;SDS011;24982;52.344;12.990;2023-05-02T09:27:27;10.52;;;5.60;;
9661;SDS011;24982;52.344;12.990;2023-05-02T09:30:29;5.78;;;5.15;;
9661;SDS011;24982;52.344;12.990;2023-05-02T09:33:31;7.00;;;5.50;;
9661;SDS011;24982;52.344;12.990;2023-05-02T09:36:38;6.75;;;5.18;;
9661;SDS011;24982;52.344;12.990;2023-05-02T09:39:40;5.55;;;5.05;;
9661;SDS011;24982;52.344;12.990;2023-05-02T09:43:14;5.60;;;5.10;;
9661;SDS011;24982;52.344;12.990;2023-05-02T09:46:16;5.80;;;5.30;;
9661;SDS011;24982;52.344;12.990;2023-05-02T09:49:18;5.72;;;5.07;;
9661;SDS011;24982;52.344;12.990;2023-05-02T09:52:38;5.72;;;5.03;;
9661;SDS011;24982;52.344;12.990;2023-05-02T09:55:40;5.40;;;4.90;;
9661;SDS011;24982;52.344;12.990;2023-05-02T09:58:44;5.82;;;5.30;;
9661;SDS011;24982;52.344;12.990;2023-05-02T10:01:50;6.03;;;5.43;;
9661;SDS011;24982;52.344;12.990;2023-05-02T10:04:55;3.70;;;3.45;;
9661;SDS011;24982;52.344;12.990;2023-05-02T10:07:58;3.75;;;3.45;;
9661;SDS011;24982;52.344;12.990;2023-05-02T10:11:01;3.20;;;3.00;;
9661;SDS011;24982;52.344;12.990;2023-05-02T10:14:09;3.55;;;2.60;;
9661;SDS011;24982;52.344;12.990;2023-05-02T10:17:14;3.83;;;2.67;;
9661;SDS011;24982;52.344;12.990;2023-05-02T10:20:21;2.50;;;2.30;;
9661;SDS011;24982;52.344;12.990;2023-05-02T10:23:26;3.38;;;2.38;;
9661;SDS011;24982;52.344;12.990;2023-05-02T10:26:29;3.30;;;3.00;;
9661;SDS011;24982;52.344;12.990;2023-05-02T10:29:33;2.63;;;2.42;;
9661;SDS011;24982;52.344;12.990;2023-05-02T10:32:36;3.75;;;2.70;;
9661;SDS011;24982;52.344;12.990;2023-05-02T10:35:40;5.57;;;2.80;;
9661;SDS011;24982;52.344;12.990;2023-05-02T10:38:45;6.40;;;3.47;;
9661;SDS011;24982;52.344;12.990;2023-05-02T10:41:48;6.93;;;3.58;;
9661;SDS011;24982;52.344;12.990;2023-05-02T10:44:56;7.60;;;4.70;;
9661;SDS011;24982;52.344;12.990;2023-05-02T10:48:14;8.80;;;4.47;;
9661;SDS011;24982;52.344;12.990;2023-05-02T10:51:25;8.35;;;4.60;;
9661;SDS011;24982;52.344;12.990;2023-05-02T10:54:28;11.18;;;5.05;;
9661;SDS011;24982;52.344;12.990;2023-05-02T10:57:30;8.30;;;4.55;;
9661;SDS011;24982;52.344;12.990;2023-05-02T11:00:33;13.43;;;5.40;;
9661;SDS011;24982;52.344;12.990;2023-05-02T11:10:26;12.40;;;5.05;;
9661;SDS011;24982;52.344;12.990;2023-05-02T11:17:06;17.55;;;5.10;;
9661;SDS011;24982;52.344;12.990;2023-05-02T11:23:31;13.25;;;4.80;;
9661;SDS011;24982;52.344;12.990;2023-05-02T11:26:36;12.98;;;4.80;;
9661;SDS011;24982;52.344;12.990;2023-05-02T11:29:50;10.63;;;4.50;;
9661;SDS011;24982;52.344;12.990;2023-05-02T11:36:26;11.10;;;4.20;;
9661;SDS011;24982;52.344;12.990;2023-05-02T11:39:29;12.35;;;4.20;;
9661;SDS011;24982;52.344;12.990;2023-05-02T11:42:32;8.85;;;3.70;;
9661;SDS011;24982;52.344;12.990;2023-05-02T11:45:35;11.60;;;3.78;;
9661;SDS011;24982;52.344;12.990;2023-05-02T11:48:39;12.15;;;4.15;;
9661;SDS011;24982;52.344;12.990;2023-05-02T11:51:42;11.23;;;4.03;;
9661;SDS011;24982;52.344;12.990;2023-05-02T11:54:44;7.25;;;3.53;;
9661;SDS011;24982;52.344;12.990;2023-05-02T11:57:46;9.13;;;3.70;;
9661;SDS011;24982;52.344;12.990;2023-05-02T12:00:48;9.38;;;3.53;;
9661;SDS011;24982;52.344;12.990;2023-05-02T12:04:01;11.88;;;3.83;;
9661;SDS011;24982;52.344;12.990;2023-05-02T12:07:04;11.63;;;3.65;;
9661;SDS011;24982;52.344;12.990;2023-05-02T12:10:07;10.82;;;3.58;;
9661;SDS011;24982;52.344;12.990;2023-05-02T12:13:10;13.13;;;4.10;;
9661;SDS011;24982;52.344;12.990;2023-05-02T12:16:12;8.88;;;3.63;;
9661;SDS011;24982;52.344;12.990;2023-05-02T12:19:18;6.65;;;3.25;;
9661;SDS011;24982;52.344;12.990;2023-05-02T12:22:22;13.40;;;3.40;;
9661;SDS011;24982;52.344;12.990;2023-05-02T12:25:24;9.88;;;3.35;;
9661;SDS011;24982;52.344;12.990;2023-05-02T12:28:26;8.20;;;3.50;;
9661;SDS011;24982;52.344;12.990;2023-05-02T12:31:28;7.68;;;3.13;;
9661;SDS011;24982;52.344;12.990;2023-05-02T12:34:33;9.15;;;3.25;;
9661;SDS011;24982;52.344;12.990;2023-05-02T12:37:35;9.32;;;3.10;;
9661;SDS011;24982;52.344;12.990;2023-05-02T12:40:44;8.30;;;3.50;;
9661;SDS011;24982;52.344;12.990;2023-05-02T12:43:48;9.02;;;3.47;;
9661;SDS011;24982;52.344;12.990;2023-05-02T12:46:57;10.43;;;3.15;;
9661;SDS011;24982;52.344;12.990;2023-05-02T12:50:00;11.55;;;2.95;;
9661;SDS011;24982;52.344;12.990;2023-05-02T12:53:02;8.18;;;3.00;;
9661;SDS011;24982;52.344;12.990;2023-05-02T12:56:06;9.60;;;3.08;;
9661;SDS011;24982;52.344;12.990;2023-05-02T12:59:09;8.05;;;2.90;;
9661;SDS011;24982;52.344;12.990;2023-05-02T13:02:27;10.10;;;3.58;;
9661;SDS011;24982;52.344;12.990;2023-05-02T13:05:30;11.20;;;3.10;;
9661;SDS011;24982;52.344;12.990;2023-05-02T13:08:32;8.18;;;3.05;;
9661;SDS011;24982;52.344;12.990;2023-05-02T13:11:35;8.18;;;3.40;;
9661;SDS011;24982;52.344;12.990;2023-05-02T13:14:38;9.68;;;3.67;;
9661;SDS011;24982;52.344;12.990;2023-05-02T13:17:40;7.50;;;3.20;;
9661;SDS011;24982;52.344;12.990;2023-05-02T13:20:43;12.05;;;3.72;;
9661;SDS011;24982;52.344;12.990;2023-05-02T13:23:46;7.90;;;3.20;;
9661;SDS011;24982;52.344;12.990;2023-05-02T13:26:49;10.30;;;3.90;;
9661;SDS011;24982;52.344;12.990;2023-05-02T13:29:51;7.82;;;3.55;;
9661;SDS011;24982;52.344;12.990;2023-05-02T13:32:53;8.35;;;3.83;;
9661;SDS011;24982;52.344;12.990;2023-05-02T13:35:58;8.88;;;4.07;;
9661;SDS011;24982;52.344;12.990;2023-05-02T13:39:00;12.48;;;3.78;;
9661;SDS011;24982;52.344;12.990;2023-05-02T13:42:03;14.50;;;3.97;;
9661;SDS011;24982;52.344;12.990;2023-05-02T13:45:06;11.10;;;3.97;;
9661;SDS011;24982;52.344;12.990;2023-05-02T13:48:08;7.20;;;3.30;;
9661;SDS011;24982;52.344;12.990;2023-05-02T13:51:12;7.45;;;3.80;;
9661;SDS011;24982;52.344;12.990;2023-05-02T13:54:14;10.43;;;3.28;;
9661;SDS011;24982;52.344;12.990;2023-05-02T13:57:16;9.82;;;3.90;;
9661;SDS011;24982;52.344;12.990;2023-05-02T14:00:18;8.88;;;3.53;;
9661;SDS011;24982;52.344;12.990;2023-05-02T14:03:20;12.02;;;3.80;;
9661;SDS011;24982;52.344;12.990;2023-05-02T14:06:23;6.68;;;3.58;;
9661;SDS011;24982;52.344;12.990;2023-05-02T14:09:25;9.15;;;3.53;;
9661;SDS011;24982;52.344;12.990;2023-05-02T14:12:27;9.48;;;4.07;;
9661;SDS011;24982;52.344;12.990;2023-05-02T14:15:30;4.53;;;2.35;;
9661;SDS011;24982;52.344;12.990;2023-05-02T14:18:32;7.68;;;3.35;;
9661;SDS011;24982;52.344;12.990;2023-05-02T14:21:35;11.20;;;3.80;;
9661;SDS011;24982;52.344;12.990;2023-05-02T14:24:37;11.35;;;3.40;;
9661;SDS011;24982;52.344;12.990;2023-05-02T14:27:39;8.50;;;3.60;;
9661;SDS011;24982;52.344;12.990;2023-05-02T14:30:41;16.25;;;4.07;;
9661;SDS011;24982;52.344;12.990;2023-05-02T14:33:43;12.15;;;3.92;;
9661;SDS011;24982;52.344;12.990;2023-05-02T14:36:46;10.15;;;3.88;;
9661;SDS011;24982;52.344;12.990;2023-05-02T14:39:48;7.18;;;3.92;;
9661;SDS011;24982;52.344;12.990;2023-05-02T14:42:51;8.70;;;3.88;;
9661;SDS011;24982;52.344;12.990;2023-05-02T14:45:53;5.85;;;3.83;;
9661;SDS011;24982;52.344;12.990;2023-05-02T14:48:56;9.07;;;4.45;;
9661;SDS011;24982;52.344;12.990;2023-05-02T14:52:00;9.50;;;4.30;;
9661;SDS011;24982;52.344;12.990;2023-05-02T14:55:02;7.88;;;4.32;;
9661;SDS011;24982;52.344;12.990;2023-05-02T14:58:04;8.60;;;4.03;;
9661;SDS011;24982;52.344;12.990;2023-05-02T15:01:13;13.20;;;4.80;;
9661;SDS011;24982;52.344;12.990;2023-05-02T15:04:16;8.38;;;4.38;;
9661;SDS011;24982;52.344;12.990;2023-05-02T15:07:20;3.75;;;2.65;;
9661;SDS011;24982;52.344;12.990;2023-05-02T15:10:22;9.23;;;3.67;;
9661;SDS011;24982;52.344;12.990;2023-05-02T15:13:24;10.65;;;3.90;;
9661;SDS011;24982;52.344;12.990;2023-05-02T15:16:26;6.25;;;3.90;;
9661;SDS011;24982;52.344;12.990;2023-05-02T15:19:28;7.70;;;3.92;;
9661;SDS011;24982;52.344;12.990;2023-05-02T15:22:31;7.90;;;3.75;;
9661;SDS011;24982;52.344;12.990;2023-05-02T15:25:33;7.43;;;3.78;;
9661;SDS011;24982;52.344;12.990;2023-05-02T15:28:35;7.93;;;3.88;;
9661;SDS011;24982;52.344;12.990;2023-05-02T15:31:37;6.60;;;4.03;;
9661;SDS011;24982;52.344;12.990;2023-05-02T15:34:39;5.10;;;3.50;;
9661;SDS011;24982;52.344;12.990;2023-05-02T15:37:42;8.38;;;3.97;;
9661;SDS011;24982;52.344;12.990;2023-05-02T15:40:46;6.38;;;4.10;;
9661;SDS011;24982;52.344;12.990;2023-05-02T15:43:54;9.05;;;3.80;;
9661;SDS011;24982;52.344;12.990;2023-05-02T15:46:57;7.13;;;3.67;;
9661;SDS011;24982;52.344;12.990;2023-05-02T15:49:59;8.13;;;4.07;;
9661;SDS011;24982;52.344;12.990;2023-05-02T15:53:03;8.77;;;4.20;;
9661;SDS011;24982;52.344;12.990;2023-05-02T15:56:06;7.72;;;3.80;;
9661;SDS011;24982;52.344;12.990;2023-05-02T15:59:08;9.68;;;4.05;;
9661;SDS011;24982;52.344;12.990;2023-05-02T16:02:10;9.35;;;3.75;;
9661;SDS011;24982;52.344;12.990;2023-05-02T16:05:12;7.65;;;3.50;;
9661;SDS011;24982;52.344;12.990;2023-05-02T16:08:16;7.30;;;3.75;;
9661;SDS011;24982;52.344;12.990;2023-05-02T16:11:17;6.47;;;3.58;;
9661;SDS011;24982;52.344;12.990;2023-05-02T16:14:20;7.63;;;3.92;;
9661;SDS011;24982;52.344;12.990;2023-05-02T16:17:23;6.47;;;3.58;;
9661;SDS011;24982;52.344;12.990;2023-05-02T16:20:25;6.20;;;3.33;;
9661;SDS011;24982;52.344;12.990;2023-05-02T16:23:31;9.20;;;3.70;;
9661;SDS011;24982;52.344;12.990;2023-05-02T16:26:33;8.50;;;3.88;;
9661;SDS011;24982;52.344;12.990;2023-05-02T16:29:36;8.00;;;3.70;;
9661;SDS011;24982;52.344;12.990;2023-05-02T16:32:38;10.73;;;3.58;;
9661;SDS011;24982;52.344;12.990;2023-05-02T16:35:40;5.43;;;3.42;;
9661;SDS011;24982;52.344;12.990;2023-05-02T16:38:43;10.18;;;3.50;;
9661;SDS011;24982;52.344;12.990;2023-05-02T16:41:45;6.65;;;3.33;;
9661;SDS011;24982;52.344;12.990;2023-05-02T16:44:48;6.97;;;3.50;;
9661;SDS011;24982;52.344;12.990;2023-05-02T16:47:50;7.40;;;3.63;;
9661;SDS011;24982;52.344;12.990;2023-05-02T16:50:52;10.15;;;3.58;;
9661;SDS011;24982;52.344;12.990;2023-05-02T16:53:55;7.60;;;3.63;;
9661;SDS011;24982;52.344;12.990;2023-05-02T16:56:57;7.68;;;3.40;;
9661;SDS011;24982;52.344;12.990;2023-05-02T17:00:01;10.20;;;3.78;;
9661;SDS011;24982;52.344;12.990;2023-05-02T17:03:04;4.80;;;3.10;;
9661;SDS011;24982;52.344;12.990;2023-05-02T17:06:06;9.15;;;3.20;;
9661;SDS011;24982;52.344;12.990;2023-05-02T17:09:10;9.55;;;3.58;;
9661;SDS011;24982;52.344;12.990;2023-05-02T17:12:12;8.80;;;3.03;;
9661;SDS011;24982;52.344;12.990;2023-05-02T17:15:17;7.05;;;3.05;;
9661;SDS011;24982;52.344;12.990;2023-05-02T17:18:19;6.38;;;3.00;;
9661;SDS011;24982;52.344;12.990;2023-05-02T17:21:22;4.35;;;2.80;;
9661;SDS011;24982;52.344;12.990;2023-05-02T17:24:26;5.75;;;2.80;;
9661;SDS011;24982;52.344;12.990;2023-05-02T17:27:29;3.85;;;2.90;;
9661;SDS011;24982;52.344;12.990;2023-05-02T17:30:31;7.30;;;3.20;;
9661;SDS011;24982;52.344;12.990;2023-05-02T17:33:33;5.22;;;2.97;;
9661;SDS011;24982;52.344;12.990;2023-05-02T17:36:35;6.22;;;3.10;;
9661;SDS011;24982;52.344;12.990;2023-05-02T17:39:42;5.85;;;3.20;;
9661;SDS011;24982;52.344;12.990;2023-05-02T17:42:44;9.30;;;3.28;;
9661;SDS011;24982;52.344;12.990;2023-05-02T17:45:46;7.53;;;3.03;;
9661;SDS011;24982;52.344;12.990;2023-05-02T17:48:48;3.90;;;2.90;;
9661;SDS011;24982;52.344;12.990;2023-05-02T17:51:51;5.68;;;3.00;;
9661;SDS011;24982;52.344;12.990;2023-05-02T17:54:54;6.20;;;3.05;;
9661;SDS011;24982;52.344;12.990;2023-05-02T17:57:56;5.30;;;2.47;;
9661;SDS011;24982;52.344;12.990;2023-05-02T18:01:05;3.85;;;2.42;;
9661;SDS011;24982;52.344;12.990;2023-05-02T18:04:07;7.15;;;2.88;;
9661;SDS011;24982;52.344;12.990;2023-05-02T18:07:11;6.18;;;2.80;;
9661;SDS011;24982;52.344;12.990;2023-05-02T18:10:14;4.60;;;2.72;;
9661;SDS011;24982;52.344;12.990;2023-05-02T18:13:16;6.38;;;2.53;;
9661;SDS011;24982;52.344;12.990;2023-05-02T18:16:19;5.28;;;2.40;;
9661;SDS011;24982;52.344;12.990;2023-05-02T18:19:21;5.65;;;2.78;;
9661;SDS011;24982;52.344;12.990;2023-05-02T18:22:26;5.22;;;2.40;;
9661;SDS011;24982;52.344;12.990;2023-05-02T18:25:33;2.35;;;2.15;;
9661;SDS011;24982;52.344;12.990;2023-05-02T18:28:35;6.85;;;2.47;;
9661;SDS011;24982;52.344;12.990;2023-05-02T18:31:38;7.03;;;2.72;;
9661;SDS011;24982;52.344;12.990;2023-05-02T18:34:40;3.88;;;2.20;;
9661;SDS011;24982;52.344;12.990;2023-05-02T18:37:42;5.88;;;2.10;;
9661;SDS011;24982;52.344;12.990;2023-05-02T18:40:45;4.35;;;2.10;;
9661;SDS011;24982;52.344;12.990;2023-05-02T18:43:48;3.20;;;2.28;;
9661;SDS011;24982;52.344;12.990;2023-05-02T18:46:50;3.72;;;2.08;;